createdAt,value
2023-04-12T00:00:11.193Z,98529.19
2023-04-12T00:02:39.431Z,98522.09
2023-04-12T00:05:06.382Z,98519.34
2023-04-12T00:07:33.129Z,98518.97
2023-04-12T00:09:59.649Z,98512.63
2023-04-12T00:12:26.014Z,98502.72
2023-04-12T00:14:52.468Z,98511.94
2023-04-12T00:17:19.726Z,98500.63
2023-04-12T00:19:47.522Z,98493.28
2023-04-12T00:22:14.643Z,98493.72
2023-04-12T00:24:41.763Z,98483.19
2023-04-12T00:27:08.647Z,98482.09
2023-04-12T00:29:35.437Z,98480.56
2023-04-12T00:32:03.681Z,98475.53
2023-04-12T00:34:31.224Z,98477.63
2023-04-12T00:36:57.603Z,98477.50
2023-04-12T00:39:23.993Z,98470.31
2023-04-12T00:41:51.132Z,98469.09
2023-04-12T00:44:18.255Z,98464.84
2023-04-12T00:46:48.440Z,98452.31
2023-04-12T00:49:15.492Z,98451.22
2023-04-12T00:51:42.735Z,98442.81
2023-04-12T00:54:09.239Z,98440.00
2023-04-12T00:56:36.814Z,98446.53
2023-04-12T00:59:03.487Z,98431.38
2023-04-12T01:01:32.256Z,98430.66
2023-04-12T01:04:01.340Z,98422.34
2023-04-12T01:06:41.557Z,98419.28
2023-04-12T01:09:31.355Z,98415.94
2023-04-12T01:12:09.632Z,98409.88
2023-04-12T01:14:51.129Z,98414.28
2023-04-12T01:17:21.641Z,98403.91
2023-04-12T01:20:13.087Z,98395.59
2023-04-12T01:22:42.482Z,98393.22
2023-04-12T01:25:23.803Z,98387.56
2023-04-12T01:27:53.270Z,98383.97
2023-04-12T01:30:21.302Z,98376.81
2023-04-12T01:32:53.362Z,98376.81
2023-04-12T01:35:22.747Z,98372.34
2023-04-12T01:37:49.623Z,98376.03
2023-04-12T01:40:18.386Z,98365.88
2023-04-12T01:42:45.040Z,98357.34
2023-04-12T01:45:12.115Z,98355.06
2023-04-12T01:47:39.241Z,98358.03
2023-04-12T01:50:19.260Z,98343.59
2023-04-12T01:52:52.706Z,98345.25
2023-04-12T01:55:22.316Z,98340.94
2023-04-12T01:57:50.523Z,98341.16
2023-04-12T02:00:17.779Z,98349.34
2023-04-12T02:02:44.953Z,98341.53
2023-04-12T02:05:12.365Z,98334.94
2023-04-12T02:07:40.848Z,98324.41
2023-04-12T02:10:07.599Z,98305.84
2023-04-12T02:12:33.933Z,98294.66
2023-04-12T02:15:00.293Z,98302.06
2023-04-12T02:17:27.053Z,98301.75
2023-04-12T02:19:53.490Z,98287.94
2023-04-12T02:22:20.231Z,98285.25
2023-04-12T02:24:47.697Z,98281.19
2023-04-12T02:27:14.197Z,98271.28
2023-04-12T02:29:41.229Z,98283.47
2023-04-12T02:32:07.932Z,98278.97
2023-04-12T02:34:36.609Z,98268.06
2023-04-12T02:37:03.941Z,98251.16
2023-04-12T02:39:32.177Z,98247.81
2023-04-12T02:41:59.081Z,98244.59
2023-04-12T02:44:25.934Z,98232.47
2023-04-12T02:46:52.378Z,98234.66
2023-04-12T02:49:18.806Z,98238.88
2023-04-12T02:51:45.611Z,98229.84
2023-04-12T02:54:12.491Z,98231.31
2023-04-12T02:56:38.980Z,98222.00
2023-04-12T02:59:07.016Z,98215.28
2023-04-12T03:01:33.818Z,98212.19
2023-04-12T03:04:02.126Z,98199.97
2023-04-12T03:06:30.356Z,98199.88
2023-04-12T03:08:58.027Z,98175.47
2023-04-12T03:11:24.718Z,98184.19
2023-04-12T03:13:52.552Z,98171.72
2023-04-12T03:16:25.263Z,98174.50
2023-04-12T03:18:52.618Z,98162.53
2023-04-12T03:21:19.129Z,98166.34
2023-04-12T03:23:45.993Z,98150.19
2023-04-12T03:26:12.429Z,98151.78
2023-04-12T03:28:39.266Z,98155.88
2023-04-12T03:31:06.089Z,98139.03
2023-04-12T03:33:32.538Z,98139.63
2023-04-12T03:35:59.042Z,98123.19
2023-04-12T03:38:25.660Z,98116.63
2023-04-12T03:40:52.369Z,98107.34
2023-04-12T03:43:18.751Z,98101.03
2023-04-12T03:45:45.255Z,98094.75
2023-04-12T03:48:12.021Z,98082.94
2023-04-12T03:50:44.175Z,98076.00
2023-04-12T03:53:11.770Z,98074.66
2023-04-12T03:55:38.375Z,98080.38
2023-04-12T03:58:05.116Z,98073.03
2023-04-12T04:00:32.170Z,98062.38
2023-04-12T04:03:03.197Z,98063.22
2023-04-12T04:05:30.883Z,98050.44
2023-04-12T04:08:01.163Z,98059.03
2023-04-12T04:10:31.119Z,98051.56
2023-04-12T04:12:57.786Z,98044.00
2023-04-12T04:15:27.781Z,98031.00
2023-04-12T04:17:54.282Z,98020.84
2023-04-12T04:20:20.922Z,98006.38
2023-04-12T04:22:53.328Z,97992.03
2023-04-12T04:25:20.022Z,97992.03
2023-04-12T04:27:46.480Z,97993.31
2023-04-12T04:30:15.571Z,97988.47
2023-04-12T04:32:43.101Z,97984.66
2023-04-12T04:35:09.655Z,97984.94
2023-04-12T04:37:37.042Z,97974.63
2023-04-12T04:40:09.572Z,97963.69
2023-04-12T04:42:38.317Z,97952.75
2023-04-12T04:45:13.246Z,97945.72
2023-04-12T04:47:40.332Z,97943.53
2023-04-12T04:50:07.537Z,97939.25
2023-04-12T04:52:34.239Z,97932.84
2023-04-12T04:55:00.799Z,97941.59
2023-04-12T04:57:27.240Z,97933.91
2023-04-12T04:59:53.654Z,97925.91
2023-04-12T05:02:21.804Z,97930.03
2023-04-12T05:04:48.240Z,97932.63
2023-04-12T05:07:14.994Z,97923.97
2023-04-12T05:09:41.802Z,97920.94
2023-04-12T05:12:08.836Z,97918.84
2023-04-12T05:14:46.700Z,97921.16
2023-04-12T05:17:16.427Z,97909.16
2023-04-12T05:19:44.757Z,97916.16
2023-04-12T05:22:11.546Z,97916.47
2023-04-12T05:24:38.028Z,97903.66
2023-04-12T05:27:04.469Z,97904.34
2023-04-12T05:29:31.339Z,97905.94
2023-04-12T05:31:59.209Z,97908.78
2023-04-12T05:34:25.819Z,97909.34
2023-04-12T05:36:52.212Z,97902.34
2023-04-12T05:39:20.596Z,97903.19
2023-04-12T05:41:47.233Z,97889.69
2023-04-12T05:44:14.017Z,97897.88
2023-04-12T05:46:40.518Z,97887.72
2023-04-12T05:49:06.956Z,97889.38
2023-04-12T05:51:40.986Z,97878.38
2023-04-12T05:54:07.959Z,97873.66
2023-04-12T05:56:34.439Z,97881.06
2023-04-12T05:59:01.454Z,97871.06
2023-04-12T06:01:34.964Z,97872.09
2023-04-12T06:04:06.514Z,97860.38
2023-04-12T06:06:32.997Z,97861.25
2023-04-12T06:09:00.640Z,97865.06
2023-04-12T06:11:27.742Z,97852.44
2023-04-12T06:13:54.382Z,97860.97
2023-04-12T06:16:21.118Z,97843.44
2023-04-12T06:18:47.820Z,97851.28
2023-04-12T06:21:14.243Z,97843.81
2023-04-12T06:23:40.945Z,97845.09
2023-04-12T06:26:07.480Z,97845.31
2023-04-12T06:28:33.842Z,97839.66
2023-04-12T06:31:01.417Z,97833.66
2023-04-12T06:33:27.818Z,97828.81
2023-04-12T06:35:54.615Z,97830.16
2023-04-12T06:38:21.211Z,97811.84
2023-04-12T06:40:48.167Z,97807.84
2023-04-12T06:43:19.068Z,97811.84
2023-04-12T06:45:46.306Z,97805.50
2023-04-12T06:48:12.684Z,97799.88
2023-04-12T06:50:40.200Z,97789.88
2023-04-12T06:53:06.638Z,97785.38
2023-04-12T06:55:33.081Z,97777.19
2023-04-12T06:57:59.875Z,97778.22
2023-04-12T07:00:26.737Z,97772.22
2023-04-12T07:02:53.160Z,97772.38
2023-04-12T07:05:20.139Z,97762.53
2023-04-12T07:07:46.660Z,97768.53
2023-04-12T07:10:13.212Z,97755.66
2023-04-12T07:12:39.772Z,97753.88
2023-04-12T07:15:06.537Z,97748.50
2023-04-12T07:17:32.970Z,97743.81
2023-04-12T07:19:59.845Z,97742.50
2023-04-12T07:22:26.406Z,97740.16
2023-04-12T07:24:53.397Z,97736.84
2023-04-12T07:27:19.864Z,97732.66
2023-04-12T07:29:46.523Z,97730.16
2023-04-12T07:32:13.247Z,97726.16
2023-04-12T07:34:39.700Z,97720.16
2023-04-12T07:37:06.415Z,97717.47
2023-04-12T07:39:34.829Z,97717.31
2023-04-12T07:42:01.593Z,97706.97
2023-04-12T07:44:28.130Z,97695.63
2023-04-12T07:46:54.754Z,97691.44
2023-04-12T07:49:21.519Z,97686.41
2023-04-12T07:51:48.279Z,97679.22
2023-04-12T07:54:15.311Z,97677.72
2023-04-12T07:56:42.063Z,97670.38
2023-04-12T07:59:08.476Z,97676.53
2023-04-12T08:01:34.984Z,97663.16
2023-04-12T08:04:02.595Z,97665.66
2023-04-12T08:06:31.725Z,97657.47
2023-04-12T08:08:59.773Z,97665.44
2023-04-12T08:11:26.426Z,97665.75
2023-04-12T08:13:53.341Z,97657.91
2023-04-12T08:16:20.413Z,97663.09
2023-04-12T08:18:46.858Z,97657.75
2023-04-12T08:21:13.297Z,97651.22
2023-04-12T08:23:40.056Z,97658.22
2023-04-12T08:26:06.570Z,97646.44
2023-04-12T08:28:33.881Z,97655.63
2023-04-12T08:31:01.280Z,97644.03
2023-04-12T08:33:27.791Z,97647.25
2023-04-12T08:35:54.502Z,97652.59
2023-04-12T08:38:30.600Z,97649.09
2023-04-12T08:41:05.695Z,97633.69
2023-04-12T08:43:34.218Z,97632.88
2023-04-12T08:46:01.473Z,97632.03
2023-04-12T08:48:29.570Z,97623.97
2023-04-12T08:51:01.029Z,97631.25
2023-04-12T08:53:27.465Z,97622.72
2023-04-12T08:55:54.468Z,97618.50
2023-04-12T08:58:22.288Z,97613.63
2023-04-12T09:00:48.759Z,97621.13
2023-04-12T09:03:15.467Z,97622.44
2023-04-12T09:05:42.054Z,97612.31
2023-04-12T09:08:08.908Z,97619.00
2023-04-12T09:10:37.851Z,97605.31
2023-04-12T09:13:05.780Z,97610.13
2023-04-12T09:15:33.492Z,97612.09
2023-04-12T09:18:11.300Z,97613.75
2023-04-12T09:20:38.953Z,97604.41
2023-04-12T09:23:26.439Z,97602.56
2023-04-12T09:25:53.625Z,97590.25
2023-04-12T09:28:27.985Z,97579.78
2023-04-12T09:30:56.525Z,97594.69
2023-04-12T09:33:33.410Z,97592.34
2023-04-12T09:36:02.224Z,97590.63
2023-04-12T09:38:30.417Z,97586.22
2023-04-12T09:40:57.512Z,97578.47
2023-04-12T09:43:39.682Z,97576.91
2023-04-12T09:46:13.483Z,97578.53
2023-04-12T09:48:41.136Z,97580.13
2023-04-12T09:51:08.165Z,97579.22
2023-04-12T09:53:41.319Z,97580.06
2023-04-12T09:56:10.633Z,97576.81
2023-04-12T09:58:39.110Z,97577.09
2023-04-12T10:01:10.253Z,97578.47
2023-04-12T10:03:37.087Z,97565.19
2023-04-12T10:06:05.574Z,97571.44
2023-04-12T10:08:32.658Z,97565.16
2023-04-12T10:11:01.077Z,97558.81
2023-04-12T10:13:29.521Z,97568.69
2023-04-12T10:15:56.216Z,97558.78
2023-04-12T10:18:23.823Z,97559.72
2023-04-12T10:20:51.101Z,97561.47
2023-04-12T10:23:18.388Z,97563.72
2023-04-12T10:25:48.185Z,97553.50
2023-04-12T10:28:17.110Z,97547.22
2023-04-12T10:30:43.583Z,97544.63
2023-04-12T10:33:10.354Z,97534.38
2023-04-12T10:35:54.959Z,97538.25
2023-04-12T10:38:24.855Z,97533.97
2023-04-12T10:41:20.126Z,97531.34
2023-04-12T10:43:48.086Z,97517.63
2023-04-12T10:46:39.990Z,97522.00
2023-04-12T10:49:11.516Z,97522.00
2023-04-12T10:51:38.102Z,97509.72
2023-04-12T10:54:07.930Z,97506.88
2023-04-12T10:56:35.797Z,97503.84
2023-04-12T10:59:09.424Z,97493.97
2023-04-12T11:01:38.973Z,97489.75
2023-04-12T11:04:17.284Z,97500.97
2023-04-12T11:06:49.423Z,97504.78
2023-04-12T11:09:34.264Z,97499.28
2023-04-12T11:12:03.989Z,97500.34
2023-04-12T11:14:36.027Z,97487.94
2023-04-12T11:17:05.605Z,97490.00
2023-04-12T11:19:39.805Z,97497.31
2023-04-12T11:22:08.517Z,97480.28
2023-04-12T11:24:44.848Z,97480.09
2023-04-12T11:27:12.267Z,97474.72
2023-04-12T11:29:38.903Z,97454.19
2023-04-12T11:32:07.641Z,97445.72
2023-04-12T11:34:36.212Z,97444.25
2023-04-12T11:37:10.305Z,97443.44
2023-04-12T11:39:39.534Z,97457.31
2023-04-12T11:42:08.613Z,97446.94
2023-04-12T11:44:52.446Z,97459.38
2023-04-12T11:47:24.230Z,97451.50
2023-04-12T11:49:56.040Z,97455.03
2023-04-12T11:52:31.210Z,97453.38
2023-04-12T11:55:02.437Z,97459.19
2023-04-12T11:57:29.137Z,97514.22
2023-04-12T11:59:57.719Z,97517.19
2023-04-12T12:02:24.836Z,97525.56
2023-04-12T12:04:53.588Z,97542.06
2023-04-12T12:07:21.668Z,97547.00
2023-04-12T12:09:49.870Z,97540.38
2023-04-12T12:12:17.287Z,97557.94
2023-04-12T12:14:45.522Z,97558.00
2023-04-12T12:17:14.622Z,97561.56
2023-04-12T12:19:43.490Z,97564.97
2023-04-12T12:22:13.965Z,97568.31
2023-04-12T12:24:57.638Z,97563.38
2023-04-12T12:27:30.256Z,97565.59
2023-04-12T12:30:01.481Z,97564.38
2023-04-12T12:32:33.288Z,97549.78
2023-04-12T12:34:59.735Z,97538.09
2023-04-12T12:37:27.842Z,97556.00
2023-04-12T12:40:21.453Z,97542.28
2023-04-12T12:42:55.471Z,97529.25
2023-04-12T12:45:27.538Z,97517.00
2023-04-12T12:47:58.438Z,97514.25
2023-04-12T12:50:29.551Z,97503.75
2023-04-12T12:52:56.861Z,97494.91
2023-04-12T12:55:24.332Z,97481.00
2023-04-12T12:58:07.399Z,97474.88
2023-04-12T13:00:35.336Z,97499.06
2023-04-12T13:03:02.256Z,97508.41
2023-04-12T13:05:29.352Z,97502.91
2023-04-12T13:07:55.974Z,97496.41
2023-04-12T13:10:23.616Z,97497.72
2023-04-12T13:12:50.051Z,97498.44
2023-04-12T13:17:45.856Z,97504.34
2023-04-12T13:20:12.794Z,97516.31
2023-04-12T13:22:39.224Z,97514.97
2023-04-12T13:25:07.340Z,97515.22
2023-04-12T13:27:33.736Z,97506.19
2023-04-12T13:30:00.635Z,97508.00
2023-04-12T13:32:27.337Z,97507.25
2023-04-12T13:34:54.228Z,97503.00
2023-04-12T13:37:20.726Z,97509.09
2023-04-12T13:39:47.239Z,97498.63
2023-04-12T13:42:13.604Z,97514.94
2023-04-12T13:44:40.212Z,97521.09
2023-04-12T13:47:06.593Z,97508.53
2023-04-12T13:49:33.041Z,97512.22
2023-04-12T13:51:59.477Z,97492.81
2023-04-12T13:54:26.114Z,97494.16
2023-04-12T13:56:52.500Z,97484.22
2023-04-12T13:59:19.304Z,97472.13
2023-04-12T14:01:46.117Z,97471.00
2023-04-12T14:04:12.818Z,97466.56
2023-04-12T14:06:39.301Z,97459.75
2023-04-12T14:09:05.791Z,97463.91
2023-04-12T14:11:46.202Z,97465.78
2023-04-12T14:14:14.802Z,97462.84
2023-04-12T14:16:43.008Z,97466.50
2023-04-12T14:19:09.425Z,97465.81
2023-04-12T14:21:36.448Z,97465.88
2023-04-12T14:24:03.364Z,97471.59
2023-04-12T14:26:29.793Z,97480.09
2023-04-12T14:28:56.359Z,97488.00
2023-04-12T14:31:23.120Z,97489.81
2023-04-12T14:33:49.547Z,97487.69
2023-04-12T14:36:16.089Z,97483.19
2023-04-12T14:38:42.519Z,97465.00
2023-04-12T14:41:09.709Z,97467.91
2023-04-12T14:43:36.292Z,97457.50
2023-04-12T14:46:02.711Z,97462.81
2023-04-12T14:48:29.246Z,97461.22
2023-04-12T14:50:55.644Z,97456.91
2023-04-12T14:53:22.983Z,97464.97
2023-04-12T14:55:49.446Z,97465.75
2023-04-12T14:58:16.255Z,97460.81
2023-04-12T15:00:42.722Z,97455.03
2023-04-12T15:03:10.491Z,97452.75
2023-04-12T15:05:37.168Z,97444.06
2023-04-12T15:08:05.729Z,97443.00
2023-04-12T15:10:32.148Z,97465.97
2023-04-12T15:12:58.727Z,97457.06
2023-04-12T15:15:25.121Z,97464.69
2023-04-12T15:17:51.896Z,97464.91
2023-04-12T15:20:18.453Z,97464.69
2023-04-12T15:22:45.120Z,97473.69
2023-04-12T15:25:12.143Z,97467.88
2023-04-12T15:27:38.565Z,97462.09
2023-04-12T15:30:09.867Z,97458.78
2023-04-12T15:32:42.358Z,97448.34
2023-04-12T15:35:25.338Z,97439.03
2023-04-12T15:37:54.929Z,97434.72
2023-04-12T15:40:22.683Z,97440.94
2023-04-12T15:42:49.307Z,97446.28
2023-04-12T15:45:16.033Z,97455.75
2023-04-12T15:47:42.860Z,97458.00
2023-04-12T15:50:09.621Z,97476.75
2023-04-12T15:52:36.328Z,97507.84
2023-04-12T15:55:04.986Z,97548.25
2023-04-12T15:57:31.556Z,97579.38
2023-04-12T15:59:59.352Z,97589.59
2023-04-12T16:02:26.458Z,97594.38
2023-04-12T16:04:55.809Z,97616.97
2023-04-12T16:07:22.582Z,97637.19
2023-04-12T16:09:49.048Z,97653.50
2023-04-12T16:12:15.559Z,97646.47
2023-04-12T16:14:42.219Z,97655.16
2023-04-12T16:17:10.801Z,97663.34
2023-04-12T16:19:37.482Z,97669.66
2023-04-12T16:22:04.350Z,97674.28
2023-04-12T16:24:30.791Z,97670.13
2023-04-12T16:26:57.660Z,97674.28
2023-04-12T16:29:24.596Z,97675.78
2023-04-12T16:31:52.363Z,97674.56
2023-04-12T16:34:21.832Z,97664.53
2023-04-12T16:36:49.013Z,97669.09
2023-04-12T16:39:16.517Z,97669.09
2023-04-12T16:41:44.126Z,97670.47
2023-04-12T16:44:11.051Z,97668.44
2023-04-12T16:46:37.729Z,97668.84
2023-04-12T16:49:04.268Z,97685.22
2023-04-12T16:51:37.387Z,97695.59
2023-04-12T16:54:04.465Z,97705.84
2023-04-12T16:56:31.739Z,97695.13
2023-04-12T16:59:01.336Z,97692.53
2023-04-12T17:01:28.074Z,97700.13
2023-04-12T17:03:54.623Z,97702.59
2023-04-12T17:06:21.521Z,97706.88
2023-04-12T17:08:48.885Z,97715.28
2023-04-12T17:11:15.421Z,97707.97
2023-04-12T17:13:42.248Z,97731.63
2023-04-12T17:16:09.910Z,97736.97
2023-04-12T17:18:39.750Z,97733.97
2023-04-12T17:21:06.639Z,97722.44
2023-04-12T17:23:33.048Z,97716.78
2023-04-12T17:25:59.401Z,97722.13
2023-04-12T17:28:25.812Z,97723.50
2023-04-12T17:30:52.253Z,97714.47
2023-04-12T17:33:18.741Z,97713.81
2023-04-12T17:35:47.357Z,97706.47
2023-04-12T17:38:13.865Z,97716.50
2023-04-12T17:40:40.660Z,97714.00
2023-04-12T17:43:07.204Z,97709.13
2023-04-12T17:45:33.911Z,97704.81
2023-04-12T17:48:00.742Z,97710.13
2023-04-12T17:50:27.322Z,97730.34
2023-04-12T17:52:55.341Z,97732.66
2023-04-12T17:55:24.341Z,97710.78
2023-04-12T17:57:51.161Z,97724.28
2023-04-12T18:00:18.851Z,97725.97
2023-04-12T18:02:46.552Z,97722.44
2023-04-12T18:05:13.777Z,97725.91
2023-04-12T18:07:42.456Z,97740.41
2023-04-12T18:10:10.171Z,97744.53
2023-04-12T18:12:38.480Z,97751.19
2023-04-12T18:15:08.545Z,97767.47
2023-04-12T18:17:35.032Z,97764.31
2023-04-12T18:20:02.839Z,97756.31
2023-04-12T18:22:29.618Z,97770.25
2023-04-12T18:24:56.091Z,97761.91
2023-04-12T18:27:22.699Z,97765.75
2023-04-12T18:29:49.170Z,97770.19
2023-04-12T18:32:16.097Z,97765.16
2023-04-12T18:34:42.472Z,97784.81
2023-04-12T18:37:08.890Z,97778.38
2023-04-12T18:39:35.770Z,97783.47
2023-04-12T18:42:02.693Z,97779.78
2023-04-12T18:44:30.439Z,97791.16
2023-04-12T18:46:56.965Z,97787.63
2023-04-12T18:49:24.053Z,97787.41
2023-04-12T18:51:50.709Z,97789.94
2023-04-12T18:54:17.494Z,97794.06
2023-04-12T18:56:43.962Z,97793.53
2023-04-12T18:59:17.314Z,97802.00
2023-04-12T19:01:45.048Z,97796.59
2023-04-12T19:04:12.043Z,97798.22
2023-04-12T19:06:38.548Z,97795.34
2023-04-12T19:09:06.442Z,97794.03
2023-04-12T19:11:34.918Z,97782.69
2023-04-12T19:14:03.325Z,97789.63
2023-04-12T19:16:29.829Z,97795.84
2023-04-12T19:19:00.144Z,97791.97
2023-04-12T19:21:29.096Z,97795.41
2023-04-12T19:23:56.146Z,97786.13
2023-04-12T19:26:23.262Z,97791.38
2023-04-12T19:28:52.337Z,97784.25
2023-04-12T19:31:18.985Z,97786.81
2023-04-12T19:33:45.741Z,97786.53
2023-04-12T19:36:12.183Z,97790.41
2023-04-12T19:38:41.672Z,97792.06
2023-04-12T19:41:08.099Z,97791.81
2023-04-12T19:43:34.695Z,97782.16
2023-04-12T19:46:01.476Z,97787.50
2023-04-12T19:48:29.581Z,97782.47
2023-04-12T19:50:57.008Z,97793.50
2023-04-12T19:53:24.237Z,97785.81
2023-04-12T19:55:56.943Z,97786.94
2023-04-12T19:58:23.688Z,97789.78
2023-04-12T20:00:54.678Z,97805.13
2023-04-12T20:03:22.073Z,97805.00
2023-04-12T20:05:48.644Z,97802.59
2023-04-12T20:08:15.818Z,97790.59
2023-04-12T20:10:42.796Z,97798.13
2023-04-12T20:13:14.908Z,97796.06
2023-04-12T20:15:42.741Z,97793.94
2023-04-12T20:18:11.201Z,97799.22
2023-04-12T20:20:38.242Z,97784.91
2023-04-12T20:23:04.724Z,97794.03
2023-04-12T20:25:35.463Z,97792.72
2023-04-12T20:28:04.337Z,97795.94
2023-04-12T20:30:31.025Z,97782.31
2023-04-12T20:32:58.866Z,97787.13
2023-04-12T20:35:25.628Z,97790.72
2023-04-12T20:37:53.303Z,97785.69
2023-04-12T20:40:20.649Z,97786.88
2023-04-12T20:42:47.367Z,97783.31
2023-04-12T20:45:14.319Z,97782.16
2023-04-12T20:47:41.411Z,97787.47
2023-04-12T20:50:08.222Z,97787.59
2023-04-12T20:52:35.356Z,97792.28
2023-04-12T20:55:02.279Z,97797.41
2023-04-12T20:57:29.043Z,97801.03
2023-04-12T20:59:55.607Z,97808.59
2023-04-12T21:02:22.357Z,97806.31
2023-04-12T21:04:49.010Z,97812.16
2023-04-12T21:07:16.130Z,97803.47
2023-04-12T21:09:42.625Z,97809.78
2023-04-12T21:12:09.904Z,97795.72
2023-04-12T21:14:37.550Z,97793.06
2023-04-12T21:17:05.082Z,97795.13
2023-04-12T21:19:31.955Z,97801.03
2023-04-12T21:21:59.287Z,97795.03
2023-04-12T21:24:26.029Z,97797.50
2023-04-12T21:27:00.233Z,97796.81
2023-04-12T21:29:26.627Z,97800.88
2023-04-12T21:31:53.050Z,97805.91
2023-04-12T21:34:22.062Z,97804.56
2023-04-12T21:36:48.475Z,97805.09
2023-04-12T21:39:15.226Z,97798.34
2023-04-12T21:41:41.684Z,97794.31
2023-04-12T21:44:08.222Z,97788.88
2023-04-12T21:46:34.981Z,97786.63
2023-04-12T21:49:01.348Z,97794.56
2023-04-12T21:51:28.070Z,97788.91
2023-04-12T21:53:54.482Z,97794.31
2023-04-12T21:56:21.530Z,97792.25
2023-04-12T21:58:47.894Z,97788.31
2023-04-12T22:01:15.483Z,97782.69
2023-04-12T22:03:44.936Z,97779.13
2023-04-12T22:06:14.291Z,97780.09
2023-04-12T22:08:43.906Z,97777.00
2023-04-12T22:11:11.309Z,97781.19
2023-04-12T22:13:46.648Z,97781.34
2023-04-12T22:16:13.880Z,97776.41
2023-04-12T22:18:41.108Z,97776.09
2023-04-12T22:21:08.142Z,97781.09
2023-04-12T22:23:38.726Z,97780.28
2023-04-12T22:26:10.263Z,97784.97
2023-04-12T22:28:38.087Z,97781.78
2023-04-12T22:31:05.773Z,97782.75
2023-04-12T22:33:32.291Z,97771.72
2023-04-12T22:35:58.666Z,97773.31
2023-04-12T22:38:25.555Z,97769.72
2023-04-12T22:40:52.386Z,97778.63
2023-04-12T22:43:20.804Z,97777.56
2023-04-12T22:45:47.350Z,97769.88
2023-04-12T22:48:17.436Z,97768.47
2023-04-12T22:50:47.172Z,97770.75
2023-04-12T22:53:13.947Z,97769.78
2023-04-12T22:55:41.558Z,97770.31
2023-04-12T22:58:08.446Z,97767.94
2023-04-12T23:00:35.599Z,97771.53
2023-04-12T23:03:02.541Z,97774.41
2023-04-12T23:05:29.239Z,97768.94
2023-04-12T23:07:55.618Z,97765.28
2023-04-12T23:10:22.439Z,97753.00
2023-04-12T23:12:52.143Z,97752.69
2023-04-12T23:15:19.037Z,97752.91
2023-04-12T23:17:45.541Z,97745.94
2023-04-12T23:20:15.162Z,97749.00
2023-04-12T23:23:07.623Z,97751.94
2023-04-12T23:25:41.818Z,97746.75
2023-04-12T23:28:13.954Z,97748.47
2023-04-12T23:30:48.755Z,97757.66
2023-04-12T23:33:18.072Z,97738.97
2023-04-12T23:35:46.111Z,97736.75
2023-04-12T23:38:15.690Z,97731.44
2023-04-12T23:40:43.300Z,97723.84
2023-04-12T23:43:09.701Z,97725.59
2023-04-12T23:45:37.252Z,97714.28
2023-04-12T23:48:07.241Z,97719.59
2023-04-12T23:50:33.737Z,97716.31
2023-04-12T23:53:00.157Z,97713.50
2023-04-12T23:55:26.675Z,97721.34
2023-04-12T23:57:53.029Z,97719.13
